sensor_id;sensor_type;location;lat;lon;timestamp;temperature;humidity
20504;DHT22;10410;51.046;6.980;2023-06-24T00:02:47;18.80;99.90
20504;DHT22;10410;51.046;6.980;2023-06-24T00:09:47;18.80;99.90
20504;DHT22;10410;51.046;6.980;2023-06-24T00:16:48;18.70;99.90
20504;DHT22;10410;51.046;6.980;2023-06-24T00:23:51;18.60;99.90
20504;DHT22;10410;51.046;6.980;2023-06-24T00:30:52;18.60;99.90
20504;DHT22;10410;51.046;6.980;2023-06-24T00:37:52;18.50;99.90
20504;DHT22;10410;51.046;6.980;2023-06-24T00:44:58;18.40;99.90
20504;DHT22;10410;51.046;6.980;2023-06-24T00:51:58;18.30;99.90
20504;DHT22;10410;51.046;6.980;2023-06-24T00:59:04;18.30;99.90
20504;DHT22;10410;51.046;6.980;2023-06-24T01:06:08;18.20;99.90
20504;DHT22;10410;51.046;6.980;2023-06-24T01:13:09;18.00;99.90
20504;DHT22;10410;51.046;6.980;2023-06-24T01:20:42;17.90;99.90
20504;DHT22;10410;51.046;6.980;2023-06-24T01:35:32;17.80;99.90
20504;DHT22;10410;51.046;6.980;2023-06-24T01:42:41;17.70;99.90
20504;DHT22;10410;51.046;6.980;2023-06-24T01:49:42;17.70;99.90
20504;DHT22;10410;51.046;6.980;2023-06-24T01:56:45;17.60;99.90
20504;DHT22;10410;51.046;6.980;2023-06-24T02:03:48;17.60;99.90
20504;DHT22;10410;51.046;6.980;2023-06-24T02:10:50;17.50;99.90
20504;DHT22;10410;51.046;6.980;2023-06-24T02:17:52;17.50;99.90
20504;DHT22;10410;51.046;6.980;2023-06-24T02:24:56;17.40;99.90
20504;DHT22;10410;51.046;6.980;2023-06-24T02:31:57;17.40;99.90
20504;DHT22;10410;51.046;6.980;2023-06-24T02:38:58;17.30;99.90
20504;DHT22;10410;51.046;6.980;2023-06-24T02:45:59;17.20;99.90
20504;DHT22;10410;51.046;6.980;2023-06-24T02:53:02;17.20;99.90
20504;DHT22;10410;51.046;6.980;2023-06-24T03:00:08;17.00;99.90
20504;DHT22;10410;51.046;6.980;2023-06-24T03:07:40;16.90;99.90
20504;DHT22;10410;51.046;6.980;2023-06-24T03:14:41;16.80;99.90
20504;DHT22;10410;51.046;6.980;2023-06-24T03:21:41;16.70;99.90
20504;DHT22;10410;51.046;6.980;2023-06-24T03:28:47;16.60;99.90
20504;DHT22;10410;51.046;6.980;2023-06-24T03:35:51;16.60;99.90
20504;DHT22;10410;51.046;6.980;2023-06-24T03:42:56;16.50;99.90
20504;DHT22;10410;51.046;6.980;2023-06-24T03:49:57;16.40;99.90
20504;DHT22;10410;51.046;6.980;2023-06-24T03:56:58;16.50;99.90
20504;DHT22;10410;51.046;6.980;2023-06-24T04:03:59;16.40;99.90
20504;DHT22;10410;51.046;6.980;2023-06-24T04:10:59;16.40;99.90
20504;DHT22;10410;51.046;6.980;2023-06-24T04:18:00;16.40;99.90
20504;DHT22;10410;51.046;6.980;2023-06-24T04:25:00;16.50;99.90
20504;DHT22;10410;51.046;6.980;2023-06-24T04:32:01;16.50;99.90
20504;DHT22;10410;51.046;6.980;2023-06-24T04:39:01;16.60;99.90
20504;DHT22;10410;51.046;6.980;2023-06-24T04:46:02;16.70;99.90
20504;DHT22;10410;51.046;6.980;2023-06-24T04:53:02;16.80;99.90
20504;DHT22;10410;51.046;6.980;2023-06-24T05:00:03;16.90;99.90
20504;DHT22;10410;51.046;6.980;2023-06-24T05:07:04;17.00;99.90
20504;DHT22;10410;51.046;6.980;2023-06-24T05:14:05;17.00;99.90
20504;DHT22;10410;51.046;6.980;2023-06-24T05:21:05;17.20;99.90
20504;DHT22;10410;51.046;6.980;2023-06-24T05:28:06;17.30;99.90
20504;DHT22;10410;51.046;6.980;2023-06-24T05:35:06;17.50;99.90
20504;DHT22;10410;51.046;6.980;2023-06-24T05:42:07;17.70;99.90
20504;DHT22;10410;51.046;6.980;2023-06-24T05:49:08;17.90;99.90
20504;DHT22;10410;51.046;6.980;2023-06-24T05:56:08;18.10;99.90
20504;DHT22;10410;51.046;6.980;2023-06-24T06:03:09;18.30;99.90
20504;DHT22;10410;51.046;6.980;2023-06-24T06:10:09;18.60;99.90
20504;DHT22;10410;51.046;6.980;2023-06-24T06:17:13;18.80;99.90
20504;DHT22;10410;51.046;6.980;2023-06-24T06:24:14;19.00;99.90
20504;DHT22;10410;51.046;6.980;2023-06-24T06:31:15;19.30;99.90
20504;DHT22;10410;51.046;6.980;2023-06-24T06:38:16;19.60;99.90
20504;DHT22;10410;51.046;6.980;2023-06-24T06:45:16;19.90;99.90
20504;DHT22;10410;51.046;6.980;2023-06-24T06:52:18;20.20;99.90
20504;DHT22;10410;51.046;6.980;2023-06-24T06:59:19;20.40;99.90
20504;DHT22;10410;51.046;6.980;2023-06-24T07:06:19;20.50;99.90
20504;DHT22;10410;51.046;6.980;2023-06-24T07:13:20;20.60;99.90
20504;DHT22;10410;51.046;6.980;2023-06-24T07:20:22;20.70;99.90
20504;DHT22;10410;51.046;6.980;2023-06-24T07:27:23;20.90;99.90
20504;DHT22;10410;51.046;6.980;2023-06-24T07:34:24;21.10;99.90
20504;DHT22;10410;51.046;6.980;2023-06-24T07:41:24;21.30;99.90
20504;DHT22;10410;51.046;6.980;2023-06-24T07:48:25;21.40;99.90
20504;DHT22;10410;51.046;6.980;2023-06-24T07:55:25;21.50;99.90
20504;DHT22;10410;51.046;6.980;2023-06-24T08:02:26;21.70;99.90
20504;DHT22;10410;51.046;6.980;2023-06-24T08:09:26;21.90;99.90
20504;DHT22;10410;51.046;6.980;2023-06-24T08:16:27;22.00;99.90
20504;DHT22;10410;51.046;6.980;2023-06-24T08:23:27;22.10;99.90
20504;DHT22;10410;51.046;6.980;2023-06-24T08:30:27;22.40;99.90
20504;DHT22;10410;51.046;6.980;2023-06-24T08:37:28;22.50;99.90
20504;DHT22;10410;51.046;6.980;2023-06-24T08:44:28;22.70;99.90
20504;DHT22;10410;51.046;6.980;2023-06-24T08:51:31;22.90;99.90
20504;DHT22;10410;51.046;6.980;2023-06-24T08:58:35;23.20;99.90
20504;DHT22;10410;51.046;6.980;2023-06-24T09:05:35;23.30;99.90
20504;DHT22;10410;51.046;6.980;2023-06-24T09:12:36;23.30;99.90
20504;DHT22;10410;51.046;6.980;2023-06-24T09:19:37;23.40;99.90
20504;DHT22;10410;51.046;6.980;2023-06-24T09:26:37;23.70;99.90
20504;DHT22;10410;51.046;6.980;2023-06-24T09:33:39;23.90;99.90
20504;DHT22;10410;51.046;6.980;2023-06-24T09:40:40;24.00;99.90
20504;DHT22;10410;51.046;6.980;2023-06-24T09:47:40;24.10;99.90
20504;DHT22;10410;51.046;6.980;2023-06-24T09:54:41;24.30;99.90
20504;DHT22;10410;51.046;6.980;2023-06-24T10:01:44;24.50;99.90
20504;DHT22;10410;51.046;6.980;2023-06-24T10:08:45;24.40;99.90
20504;DHT22;10410;51.046;6.980;2023-06-24T10:15:46;24.60;99.90
20504;DHT22;10410;51.046;6.980;2023-06-24T10:22:46;24.90;99.90
20504;DHT22;10410;51.046;6.980;2023-06-24T10:29:51;25.20;99.90
20504;DHT22;10410;51.046;6.980;2023-06-24T10:37:49;25.20;99.90
20504;DHT22;10410;51.046;6.980;2023-06-24T10:44:17;25.10;99.90
20504;DHT22;10410;51.046;6.980;2023-06-24T10:51:17;25.40;99.90
20504;DHT22;10410;51.046;6.980;2023-06-24T10:58:17;25.60;99.90
20504;DHT22;10410;51.046;6.980;2023-06-24T11:05:19;25.90;99.90
20504;DHT22;10410;51.046;6.980;2023-06-24T11:12:24;26.10;99.90
20504;DHT22;10410;51.046;6.980;2023-06-24T11:19:25;26.20;99.90
20504;DHT22;10410;51.046;6.980;2023-06-24T11:26:27;26.20;99.10
20504;DHT22;10410;51.046;6.980;2023-06-24T11:33:28;26.20;99.50
20504;DHT22;10410;51.046;6.980;2023-06-24T11:40:30;26.60;98.50
20504;DHT22;10410;51.046;6.980;2023-06-24T11:47:35;26.60;96.50
20504;DHT22;10410;51.046;6.980;2023-06-24T11:54:40;26.60;94.40
20504;DHT22;10410;51.046;6.980;2023-06-24T12:01:42;26.80;94.00
20504;DHT22;10410;51.046;6.980;2023-06-24T12:08:42;26.90;93.10
20504;DHT22;10410;51.046;6.980;2023-06-24T12:15:51;27.20;93.00
20504;DHT22;10410;51.046;6.980;2023-06-24T12:22:52;27.30;93.50
20504;DHT22;10410;51.046;6.980;2023-06-24T12:29:52;27.60;93.00
20504;DHT22;10410;51.046;6.980;2023-06-24T12:36:53;27.80;92.30
20504;DHT22;10410;51.046;6.980;2023-06-24T12:43:53;27.80;92.30
20504;DHT22;10410;51.046;6.980;2023-06-24T12:50:53;28.10;92.10
20504;DHT22;10410;51.046;6.980;2023-06-24T12:57:54;28.20;92.10
20504;DHT22;10410;51.046;6.980;2023-06-24T13:04:55;28.60;91.80
20504;DHT22;10410;51.046;6.980;2023-06-24T13:11:55;29.00;91.30
20504;DHT22;10410;51.046;6.980;2023-06-24T13:18:55;29.30;90.50
20504;DHT22;10410;51.046;6.980;2023-06-24T13:25:56;29.40;87.70
20504;DHT22;10410;51.046;6.980;2023-06-24T13:32:57;29.30;87.20
20504;DHT22;10410;51.046;6.980;2023-06-24T13:39:58;29.60;84.40
20504;DHT22;10410;51.046;6.980;2023-06-24T13:46:59;29.70;82.20
20504;DHT22;10410;51.046;6.980;2023-06-24T13:54:00;29.90;80.40
20504;DHT22;10410;51.046;6.980;2023-06-24T14:01:01;30.20;79.40
20504;DHT22;10410;51.046;6.980;2023-06-24T14:08:02;30.50;77.50
20504;DHT22;10410;51.046;6.980;2023-06-24T14:15:02;30.80;76.40
20504;DHT22;10410;51.046;6.980;2023-06-24T14:22:03;31.10;74.60
20504;DHT22;10410;51.046;6.980;2023-06-24T14:29:04;31.30;72.10
20504;DHT22;10410;51.046;6.980;2023-06-24T14:36:04;31.60;71.80
20504;DHT22;10410;51.046;6.980;2023-06-24T14:43:05;31.70;65.80
20504;DHT22;10410;51.046;6.980;2023-06-24T14:50:05;31.40;64.10
20504;DHT22;10410;51.046;6.980;2023-06-24T14:57:06;31.60;62.90
20504;DHT22;10410;51.046;6.980;2023-06-24T15:04:06;32.00;64.20
20504;DHT22;10410;51.046;6.980;2023-06-24T15:11:07;32.30;63.90
20504;DHT22;10410;51.046;6.980;2023-06-24T15:18:07;32.40;62.30
20504;DHT22;10410;51.046;6.980;2023-06-24T15:25:08;32.60;60.20
20504;DHT22;10410;51.046;6.980;2023-06-24T15:32:09;32.60;58.60
20504;DHT22;10410;51.046;6.980;2023-06-24T15:39:09;32.60;60.70
20504;DHT22;10410;51.046;6.980;2023-06-24T15:46:10;33.00;59.50
20504;DHT22;10410;51.046;6.980;2023-06-24T15:53:10;33.00;59.90
20504;DHT22;10410;51.046;6.980;2023-06-24T16:00:11;33.50;59.40
20504;DHT22;10410;51.046;6.980;2023-06-24T16:07:12;33.60;58.40
20504;DHT22;10410;51.046;6.980;2023-06-24T16:14:12;33.20;55.70
20504;DHT22;10410;51.046;6.980;2023-06-24T16:21:12;32.90;56.40
20504;DHT22;10410;51.046;6.980;2023-06-24T16:28:13;33.00;56.30
20504;DHT22;10410;51.046;6.980;2023-06-24T16:35:16;33.00;55.40
20504;DHT22;10410;51.046;6.980;2023-06-24T16:42:16;33.00;56.10
20504;DHT22;10410;51.046;6.980;2023-06-24T16:49:17;33.00;55.70
20504;DHT22;10410;51.046;6.980;2023-06-24T16:56:17;33.00;54.80
20504;DHT22;10410;51.046;6.980;2023-06-24T17:03:18;33.10;52.60
20504;DHT22;10410;51.046;6.980;2023-06-24T17:10:18;32.70;51.70
20504;DHT22;10410;51.046;6.980;2023-06-24T17:17:19;32.60;52.60
20504;DHT22;10410;51.046;6.980;2023-06-24T17:24:19;32.80;53.20
20504;DHT22;10410;51.046;6.980;2023-06-24T17:31:20;33.00;52.20
20504;DHT22;10410;51.046;6.980;2023-06-24T17:38:20;32.70;51.40
20504;DHT22;10410;51.046;6.980;2023-06-24T17:45:20;32.60;51.90
20504;DHT22;10410;51.046;6.980;2023-06-24T17:52:21;32.70;52.00
20504;DHT22;10410;51.046;6.980;2023-06-24T17:59:22;32.70;51.30
20504;DHT22;10410;51.046;6.980;2023-06-24T18:06:22;32.70;51.60
20504;DHT22;10410;51.046;6.980;2023-06-24T18:13:23;32.40;51.40
20504;DHT22;10410;51.046;6.980;2023-06-24T18:20:23;32.40;51.80
20504;DHT22;10410;51.046;6.980;2023-06-24T18:27:24;32.30;51.60
20504;DHT22;10410;51.046;6.980;2023-06-24T18:34:24;31.80;51.40
20504;DHT22;10410;51.046;6.980;2023-06-24T18:41:25;31.50;52.10
20504;DHT22;10410;51.046;6.980;2023-06-24T18:48:27;31.50;52.90
20504;DHT22;10410;51.046;6.980;2023-06-24T18:55:27;31.40;53.10
20504;DHT22;10410;51.046;6.980;2023-06-24T19:02:27;31.10;53.50
20504;DHT22;10410;51.046;6.980;2023-06-24T19:09:28;30.80;54.20
20504;DHT22;10410;51.046;6.980;2023-06-24T19:16:29;30.40;55.20
20504;DHT22;10410;51.046;6.980;2023-06-24T19:23:30;29.80;56.20
20504;DHT22;10410;51.046;6.980;2023-06-24T19:30:30;29.30;57.10
20504;DHT22;10410;51.046;6.980;2023-06-24T19:37:31;28.70;58.00
20504;DHT22;10410;51.046;6.980;2023-06-24T19:44:31;28.30;58.90
20504;DHT22;10410;51.046;6.980;2023-06-24T19:51:32;28.00;59.80
20504;DHT22;10410;51.046;6.980;2023-06-24T19:58:32;27.50;60.60
20504;DHT22;10410;51.046;6.980;2023-06-24T20:05:32;27.10;61.80
20504;DHT22;10410;51.046;6.980;2023-06-24T20:12:33;26.60;63.00
20504;DHT22;10410;51.046;6.980;2023-06-24T20:19:33;26.10;64.20
20504;DHT22;10410;51.046;6.980;2023-06-24T20:26:34;25.80;65.50
20504;DHT22;10410;51.046;6.980;2023-06-24T20:33:34;25.40;66.40
20504;DHT22;10410;51.046;6.980;2023-06-24T20:40:35;25.00;67.80
20504;DHT22;10410;51.046;6.980;2023-06-24T20:47:37;24.60;68.20
20504;DHT22;10410;51.046;6.980;2023-06-24T20:54:38;24.30;69.30
20504;DHT22;10410;51.046;6.980;2023-06-24T21:01:38;23.90;70.30
20504;DHT22;10410;51.046;6.980;2023-06-24T21:08:39;23.60;71.50
20504;DHT22;10410;51.046;6.980;2023-06-24T21:15:39;23.30;72.50
20504;DHT22;10410;51.046;6.980;2023-06-24T21:22:40;23.00;73.50
20504;DHT22;10410;51.046;6.980;2023-06-24T21:29:40;22.80;74.60
20504;DHT22;10410;51.046;6.980;2023-06-24T21:36:40;22.60;75.50
20504;DHT22;10410;51.046;6.980;2023-06-24T21:43:41;22.40;76.40
20504;DHT22;10410;51.046;6.980;2023-06-24T21:50:41;22.30;77.30
20504;DHT22;10410;51.046;6.980;2023-06-24T21:57:42;22.10;78.20
20504;DHT22;10410;51.046;6.980;2023-06-24T22:04:44;22.00;79.20
20504;DHT22;10410;51.046;6.980;2023-06-24T22:11:45;21.80;80.00
20504;DHT22;10410;51.046;6.980;2023-06-24T22:18:45;21.70;80.90
20504;DHT22;10410;51.046;6.980;2023-06-24T22:25:46;21.40;81.60
20504;DHT22;10410;51.046;6.980;2023-06-24T22:32:47;21.30;82.60
20504;DHT22;10410;51.046;6.980;2023-06-24T22:39:47;20.90;83.60
20504;DHT22;10410;51.046;6.980;2023-06-24T22:46:48;20.80;84.40
20504;DHT22;10410;51.046;6.980;2023-06-24T22:53:48;20.70;85.20
20504;DHT22;10410;51.046;6.980;2023-06-24T23:00:49;20.60;85.80
20504;DHT22;10410;51.046;6.980;2023-06-24T23:07:49;20.50;86.60
20504;DHT22;10410;51.046;6.980;2023-06-24T23:14:50;20.40;87.40
20504;DHT22;10410;51.046;6.980;2023-06-24T23:21:51;20.20;88.20
20504;DHT22;10410;51.046;6.980;2023-06-24T23:28:52;20.10;88.90
20504;DHT22;10410;51.046;6.980;2023-06-24T23:35:56;20.00;89.80
20504;DHT22;10410;51.046;6.980;2023-06-24T23:42:56;19.90;90.20
20504;DHT22;10410;51.046;6.980;2023-06-24T23:49:57;19.80;90.50
20504;DHT22;10410;51.046;6.980;2023-06-24T23:56:57;19.70;90.80
